Time;durP1;ratioP1;P1;durP2;ratioP2;P2;SDS_P1;SDS_P2;PMS_P1;PMS_P2;Temp;Humidity;BMP_temperature;BMP_pressure;BME280_temperature;BME280_humidity;BME280_pressure;Samples;Min_cycle;Max_cycle;Signal;HPM_P1;HPM_P2
2022/10/24 00:00:27;;;;;;;8.55;2.10;;;;;;;13.86;100.00;95535.31;5026739;28;24431;-67
2022/10/24 00:02:53;;;;;;;5.10;1.65;;;;;;;13.78;100.00;95535.94;5026017;28;24432;-68
2022/10/24 00:05:20;;;;;;;11.20;2.20;;;;;;;13.73;100.00;95535.47;5028327;28;25011;-67
2022/10/24 00:07:48;;;;;;;7.57;1.70;;;;;;;13.73;100.00;95539.88;5017853;28;25093;-67
2022/10/24 00:10:17;;;;;;;6.32;1.90;;;;;;;13.76;100.00;95540.44;5025635;28;24802;-69
2022/10/24 00:12:45;;;;;;;9.95;1.75;;;;;;;13.70;100.00;95543.53;5020735;28;24443;-69
2022/10/24 00:15:11;;;;;;;5.87;1.80;;;;;;;13.64;100.00;95548.38;5022652;28;24488;-69
2022/10/24 00:17:38;;;;;;;6.87;1.87;;;;;;;13.58;100.00;95536.69;5025849;28;24448;-69
2022/10/24 00:20:06;;;;;;;9.00;2.07;;;;;;;13.52;100.00;95539.75;5028650;28;24532;-69
2022/10/24 00:22:33;;;;;;;5.95;2.13;;;;;;;13.45;100.00;95535.97;5028423;28;24443;-69
2022/10/24 00:25:00;;;;;;;6.57;2.22;;;;;;;13.39;100.00;95536.47;5022973;28;24806;-69
2022/10/24 00:27:27;;;;;;;9.73;2.20;;;;;;;13.33;100.00;95537.78;5025574;28;24993;-69
2022/10/24 00:29:54;;;;;;;10.00;2.63;;;;;;;13.20;100.00;95548.28;5021029;28;24432;-69
2022/10/24 00:32:20;;;;;;;7.22;1.80;;;;;;;13.21;100.00;95549.09;5028164;28;24436;-69
2022/10/24 00:34:47;;;;;;;4.40;2.10;;;;;;;13.16;100.00;95553.81;5024270;28;24443;-69
2022/10/24 00:37:14;;;;;;;8.20;2.33;;;;;;;13.13;100.00;95543.66;5020986;28;24443;-69
2022/10/24 00:39:40;;;;;;;7.13;1.88;;;;;;;13.18;100.00;95546.72;5027503;28;24428;-69
2022/10/24 00:42:07;;;;;;;6.07;2.10;;;;;;;13.26;100.00;95546.97;5027100;28;24432;-69
2022/10/24 00:44:37;;;;;;;8.02;2.10;;;;;;;13.34;100.00;95536.00;5025957;28;24463;-69
2022/10/24 00:47:07;;;;;;;11.07;1.95;;;;;;;13.36;100.00;95544.50;5024107;28;24438;-69
2022/10/24 00:49:43;;;;;;;7.72;2.00;;;;;;;13.29;100.00;95557.97;5026483;28;24435;-69
2022/10/24 00:52:11;;;;;;;10.98;2.28;;;;;;;13.39;100.00;95560.72;5026984;28;24435;-69
2022/10/24 00:54:40;;;;;;;9.88;1.75;;;;;;;13.30;100.00;95564.84;5024955;28;24432;-69
2022/10/24 00:57:16;;;;;;;8.15;1.98;;;;;;;13.16;100.00;95561.59;5019064;28;24989;-69
2022/10/24 00:59:46;;;;;;;9.80;1.83;;;;;;;13.12;100.00;95563.59;5028512;28;24439;-69
2022/10/24 01:02:13;;;;;;;6.20;1.67;;;;;;;13.11;100.00;95561.13;5028491;28;24815;-69
2022/10/24 01:04:39;;;;;;;7.18;2.20;;;;;;;13.17;100.00;95571.06;5019792;28;24989;-69
2022/10/24 01:07:19;;;;;;;9.70;1.73;;;;;;;13.49;100.00;95563.41;5020032;28;24522;-69
2022/10/24 01:10:04;;;;;;;6.88;2.33;;;;;;;13.15;100.00;95563.38;5018334;28;24830;-69
2022/10/24 01:12:39;;;;;;;8.77;1.85;;;;;;;13.05;100.00;95549.41;5024435;28;24439;-69
2022/10/24 01:15:15;;;;;;;9.50;1.90;;;;;;;12.98;100.00;95558.66;5021801;28;24432;-69
2022/10/24 01:17:48;;;;;;;11.23;1.60;;;;;;;12.86;100.00;95554.34;5017090;28;24445;-69
2022/10/24 01:20:41;;;;;;;9.00;1.90;;;;;;;12.79;100.00;95557.44;5022081;28;24435;-69
2022/10/24 01:23:23;;;;;;;6.22;1.80;;;;;;;12.64;100.00;95555.94;5025106;28;24435;-69
2022/10/24 01:26:00;;;;;;;4.73;1.80;;;;;;;12.56;100.00;95566.91;5016395;28;24494;-69
2022/10/24 01:28:34;;;;;;;3.65;1.20;;;;;;;12.59;100.00;95561.50;5019333;28;24433;-69
2022/10/24 01:31:08;;;;;;;7.68;1.70;;;;;;;12.66;100.00;95561.06;5024006;28;24442;-69
2022/10/24 01:33:39;;;;;;;7.57;1.80;;;;;;;12.77;100.00;95568.88;5027509;28;24520;-69
2022/10/24 01:36:10;;;;;;;6.78;1.65;;;;;;;12.84;100.00;95570.91;5022052;28;24439;-69
2022/10/24 01:38:42;;;;;;;4.32;1.55;;;;;;;12.90;100.00;95569.59;5024883;28;24447;-69
2022/10/24 01:41:13;;;;;;;7.53;1.80;;;;;;;12.87;100.00;95558.59;5028136;28;24447;-69
2022/10/24 01:43:44;;;;;;;3.55;1.63;;;;;;;12.86;100.00;95568.16;5028590;28;25017;-69
2022/10/24 01:46:16;;;;;;;8.10;1.98;;;;;;;12.87;100.00;95564.66;5021571;28;24452;-69
2022/10/24 01:48:48;;;;;;;8.52;1.80;;;;;;;12.90;100.00;95559.19;5025525;28;24450;-69
2022/10/24 01:51:16;;;;;;;9.20;1.73;;;;;;;12.90;100.00;95559.19;5026957;28;24443;-69
2022/10/24 01:53:44;;;;;;;7.93;1.70;;;;;;;12.89;100.00;95559.31;5027540;28;24439;-69
2022/10/24 01:56:10;;;;;;;8.27;1.88;;;;;;;12.87;100.00;95564.66;5019801;28;24451;-69
2022/10/24 01:58:37;;;;;;;10.07;1.90;;;;;;;12.81;100.00;95571.13;5025096;28;24801;-69
2022/10/24 02:01:09;;;;;;;6.13;1.55;;;;;;;12.88;100.00;95578.47;5028290;28;24893;-69
2022/10/24 02:03:42;;;;;;;5.00;1.60;;;;;;;12.91;100.00;95579.06;5027755;28;24442;-69
2022/10/24 02:06:13;;;;;;;4.63;1.52;;;;;;;12.88;100.00;95576.69;5019559;28;24711;-69
2022/10/24 02:08:44;;;;;;;3.95;1.83;;;;;;;12.77;100.00;95587.06;5025579;28;24432;-69
2022/10/24 02:11:10;;;;;;;9.10;2.03;;;;;;;12.70;100.00;95565.91;5028294;28;24446;-69
2022/10/24 02:13:44;;;;;;;6.72;1.80;;;;;;;12.75;100.00;95557.75;5023281;28;24432;-69
2022/10/24 02:16:15;;;;;;;5.13;1.65;;;;;;;12.80;100.00;95551.28;5019244;28;24428;-69
2022/10/24 02:18:44;;;;;;;8.05;1.80;;;;;;;12.77;100.00;95537.69;5025656;28;24443;-69
2022/10/24 02:21:19;;;;;;;10.90;2.08;;;;;;;12.80;100.00;95553.06;5024087;28;24478;-69
2022/10/24 02:23:52;;;;;;;6.82;2.05;;;;;;;12.73;100.00;95552.69;5024658;28;24437;-69
2022/10/24 02:26:27;;;;;;;6.70;1.83;;;;;;;12.66;100.00;95542.88;5020825;28;24463;-69
2022/10/24 02:28:57;;;;;;;13.05;2.70;;;;;;;12.63;100.00;95533.53;5025969;28;25019;-69
2022/10/24 02:31:26;;;;;;;6.80;1.60;;;;;;;12.62;100.00;95539.66;5027244;28;24555;-69
2022/10/24 02:33:56;;;;;;;6.28;1.88;;;;;;;12.65;100.00;95543.81;5019660;28;24786;-69
2022/10/24 02:36:29;;;;;;;10.25;2.22;;;;;;;12.55;100.00;95535.88;5020144;28;25080;-69
2022/10/24 02:38:57;;;;;;;7.70;2.28;;;;;;;12.51;100.00;95537.88;5025994;28;24443;-69
2022/10/24 02:41:27;;;;;;;6.93;1.85;;;;;;;12.53;100.00;95535.13;5027241;28;25000;-69
2022/10/24 02:43:56;;;;;;;10.13;2.13;;;;;;;12.54;100.00;95542.00;5020060;28;24443;-69
2022/10/24 02:46:25;;;;;;;10.82;2.10;;;;;;;12.59;100.00;95534.69;5020125;28;24479;-69
2022/10/24 02:48:58;;;;;;;7.07;2.00;;;;;;;12.65;100.00;95536.84;5026463;28;24447;-69
2022/10/24 02:51:28;;;;;;;9.60;1.80;;;;;;;12.61;100.00;95530.22;5027693;28;24809;-69
2022/10/24 02:53:55;;;;;;;8.07;1.80;;;;;;;12.62;100.00;95528.44;5019051;28;24433;-69
2022/10/24 02:56:22;;;;;;;9.30;2.30;;;;;;;12.72;100.00;95519.00;5016531;28;25016;-69
2022/10/24 02:58:48;;;;;;;4.57;1.67;;;;;;;12.74;100.00;95537.91;5026854;28;24447;-69
2022/10/24 03:01:15;;;;;;;9.68;1.95;;;;;;;12.62;100.00;95537.06;5026536;28;24447;-69
2022/10/24 03:03:41;;;;;;;7.53;2.17;;;;;;;12.44;100.00;95525.44;5019907;28;25302;-69
2022/10/24 03:06:09;;;;;;;6.05;1.92;;;;;;;12.52;100.00;95531.72;5028440;28;24466;-69
2022/10/24 03:08:36;;;;;;;13.23;2.33;;;;;;;12.46;100.00;95544.31;5029112;28;24436;-71
2022/10/24 03:11:03;;;;;;;8.00;1.83;;;;;;;12.37;100.00;95545.84;5024011;28;24436;-70
2022/10/24 03:13:30;;;;;;;10.25;2.15;;;;;;;12.29;100.00;95554.19;5020002;28;24442;-69
2022/10/24 03:15:56;;;;;;;8.48;1.98;;;;;;;12.37;100.00;95560.59;5021632;28;24435;-69
2022/10/24 03:18:23;;;;;;;8.30;2.00;;;;;;;12.40;100.00;95565.56;5029241;28;25036;-69
2022/10/24 03:20:49;;;;;;;6.63;1.95;;;;;;;12.38;100.00;95554.47;5024983;28;25001;-69
2022/10/24 03:23:18;;;;;;;6.68;1.80;;;;;;;12.39;100.00;95571.72;5025532;28;24424;-69
2022/10/24 03:25:44;;;;;;;7.33;2.17;;;;;;;12.32;100.00;95564.38;5021562;28;25194;-69
2022/10/24 03:28:11;;;;;;;13.48;2.55;;;;;;;12.40;100.00;95555.19;5026891;28;24446;-69
2022/10/24 03:30:37;;;;;;;14.55;2.85;;;;;;;12.33;100.00;95545.22;5019239;28;24435;-69
2022/10/24 03:33:04;;;;;;;8.38;2.13;;;;;;;12.33;100.00;95534.03;5024578;28;24439;-69
2022/10/24 03:35:30;;;;;;;10.25;2.28;;;;;;;12.52;100.00;95526.53;5020360;28;24486;-69
2022/10/24 03:37:57;;;;;;;21.67;2.92;;;;;;;12.67;100.00;95528.94;5023858;28;24436;-69
2022/10/24 03:40:25;;;;;;;9.73;2.88;;;;;;;12.88;100.00;95523.88;5027869;28;25115;-69
2022/10/24 03:42:51;;;;;;;9.18;2.60;;;;;;;12.89;100.00;95520.34;5029614;28;24443;-69
2022/10/24 03:45:18;;;;;;;12.65;2.92;;;;;;;12.98;100.00;95524.84;5029315;28;24455;-69
2022/10/24 03:47:44;;;;;;;9.13;2.75;;;;;;;12.98;100.00;95533.47;5027515;28;24440;-69
2022/10/24 03:50:11;;;;;;;12.43;3.30;;;;;;;12.98;100.00;95527.47;5029980;28;24423;-69
2022/10/24 03:52:37;;;;;;;8.18;2.45;;;;;;;12.98;100.00;95538.69;5022212;28;24444;-69
2022/10/24 03:55:04;;;;;;;13.63;2.90;;;;;;;12.93;100.00;95547.75;5029091;28;24647;-69
2022/10/24 03:57:32;;;;;;;14.32;3.25;;;;;;;12.90;100.00;95553.19;5018158;28;24800;-69
2022/10/24 03:59:59;;;;;;;6.13;2.25;;;;;;;12.88;100.00;95557.69;5029629;28;24432;-69
2022/10/24 04:02:25;;;;;;;11.82;2.83;;;;;;;12.82;100.00;95564.97;5024564;28;24427;-69
2022/10/24 04:04:52;;;;;;;8.43;2.23;;;;;;;12.80;100.00;95560.84;5022133;28;24462;-69
2022/10/24 04:07:18;;;;;;;11.52;2.67;;;;;;;12.79;100.00;95556.59;5025769;28;24436;-69
2022/10/24 04:09:45;;;;;;;12.70;2.75;;;;;;;12.79;100.00;95557.44;5021502;28;24443;-69
2022/10/24 04:12:11;;;;;;;10.88;2.72;;;;;;;12.81;100.00;95554.72;5025292;28;24428;-69
2022/10/24 04:14:39;;;;;;;9.00;2.72;;;;;;;12.95;100.00;95557.09;5028221;28;24463;-69
2022/10/24 04:17:06;;;;;;;6.97;2.42;;;;;;;12.94;100.00;95558.06;5026140;28;24431;-69
2022/10/24 04:19:32;;;;;;;13.80;3.13;;;;;;;12.96;100.00;95550.13;5028732;28;24447;-69
2022/10/24 04:21:59;;;;;;;10.02;3.10;;;;;;;12.95;100.00;95548.47;5026126;28;24435;-69
2022/10/24 04:24:26;;;;;;;9.23;2.95;;;;;;;12.98;100.00;95538.69;5028715;28;24432;-69
2022/10/24 04:26:52;;;;;;;9.77;3.03;;;;;;;13.03;100.00;95533.13;5026157;28;24452;-69
2022/10/24 04:29:19;;;;;;;13.32;3.30;;;;;;;13.02;100.00;95528.88;5028739;28;24431;-69
2022/10/24 04:31:47;;;;;;;12.93;2.92;;;;;;;13.05;100.00;95534.66;5022794;28;24437;-69
2022/10/24 04:34:13;;;;;;;15.38;3.20;;;;;;;13.02;100.00;95532.28;5016502;28;24988;-69
2022/10/24 04:36:40;;;;;;;12.55;2.90;;;;;;;13.03;100.00;95533.13;5020631;28;24793;-69
2022/10/24 04:39:07;;;;;;;14.20;2.70;;;;;;;13.01;100.00;95538.41;5023673;28;24433;-69
2022/10/24 04:41:34;;;;;;;10.10;2.65;;;;;;;13.03;100.00;95544.34;5026345;28;24424;-69
2022/10/24 04:44:00;;;;;;;12.88;2.55;;;;;;;13.07;100.00;95545.75;5023396;28;24996;-69
2022/10/24 04:46:27;;;;;;;9.47;3.03;;;;;;;13.09;100.00;95543.06;5025999;28;24993;-67
2022/10/24 04:48:55;;;;;;;13.07;2.83;;;;;;;13.11;100.00;95538.56;5021591;28;24440;-68
2022/10/24 04:51:21;;;;;;;6.10;2.35;;;;;;;13.06;100.00;95540.69;5026150;28;24431;-68
2022/10/24 04:53:48;;;;;;;9.75;2.78;;;;;;;13.03;100.00;95549.53;5029098;28;24447;-70
2022/10/24 04:56:14;;;;;;;12.83;2.77;;;;;;;13.10;100.00;95554.28;5023465;28;24424;-68
2022/10/24 04:58:41;;;;;;;10.32;2.35;;;;;;;13.08;100.00;95551.78;5026342;28;24450;-68
2022/10/24 05:01:07;;;;;;;8.55;2.95;;;;;;;13.08;100.00;95544.00;5024324;28;24442;-68
2022/10/24 05:03:34;;;;;;;15.68;3.35;;;;;;;13.11;100.00;95553.34;5026647;28;24435;-70
2022/10/24 05:06:02;;;;;;;8.63;3.00;;;;;;;13.11;100.00;95566.34;5023029;28;24448;-78
2022/10/24 05:08:28;;;;;;;13.65;2.92;;;;;;;13.11;100.00;95580.16;5022162;28;24439;-69
2022/10/24 05:10:55;;;;;;;11.45;2.75;;;;;;;13.08;100.00;95589.00;5026491;28;24441;-69
2022/10/24 05:13:21;;;;;;;11.50;3.35;;;;;;;13.04;100.00;95598.00;5031839;28;24438;-69
2022/10/24 05:15:48;;;;;;;12.30;2.85;;;;;;;12.99;100.00;95600.13;5025420;28;24428;-69
2022/10/24 05:18:14;;;;;;;11.13;3.15;;;;;;;12.97;100.00;95611.56;5025062;28;24432;-69
2022/10/24 05:20:41;;;;;;;10.87;2.67;;;;;;;12.99;100.00;95597.50;5024843;28;24795;-69
2022/10/24 05:23:09;;;;;;;11.57;3.00;;;;;;;13.05;100.00;95591.00;5031485;28;24443;-69
2022/10/24 05:25:35;;;;;;;10.75;2.97;;;;;;;13.02;100.00;95584.28;5021137;28;24452;-69
2022/10/24 05:28:02;;;;;;;8.10;2.60;;;;;;;13.12;100.00;95575.78;5023290;28;24519;-69
2022/10/24 05:30:28;;;;;;;12.18;3.00;;;;;;;13.13;100.00;95587.84;5021586;28;24455;-69
2022/10/24 05:32:55;;;;;;;12.38;2.65;;;;;;;13.11;100.00;95576.72;5023348;28;24435;-69
2022/10/24 05:35:21;;;;;;;8.15;2.65;;;;;;;13.15;100.00;95573.78;5030804;28;25011;-70
2022/10/24 05:37:48;;;;;;;9.10;2.67;;;;;;;13.20;100.00;95571.69;5028577;28;24448;-69
2022/10/24 05:40:15;;;;;;;11.23;3.25;;;;;;;13.15;100.00;95563.38;5031077;28;24436;-70
2022/10/24 05:42:42;;;;;;;14.38;3.05;;;;;;;13.17;100.00;95561.50;5028919;28;24424;-69
2022/10/24 05:45:10;;;;;;;8.88;2.97;;;;;;;13.12;100.00;95565.38;5031076;28;24440;-70
2022/10/24 05:47:37;;;;;;;11.23;3.08;;;;;;;13.09;100.00;95569.06;5029223;28;25232;-69
2022/10/24 05:50:05;;;;;;;10.05;3.45;;;;;;;13.07;100.00;95568.34;5030986;28;24431;-70
2022/10/24 05:52:35;;;;;;;14.00;3.22;;;;;;;13.06;100.00;95574.50;5029490;28;24432;-69
2022/10/24 05:55:01;;;;;;;9.65;2.60;;;;;;;13.12;100.00;95580.97;5030171;28;24459;-69
2022/10/24 05:57:29;;;;;;;9.02;2.65;;;;;;;13.14;100.00;95582.53;5030640;28;24438;-69
2022/10/24 05:59:56;;;;;;;11.77;2.83;;;;;;;13.15;100.00;95573.78;5029876;28;24439;-69
2022/10/24 06:02:22;;;;;;;8.70;2.70;;;;;;;13.12;100.00;95581.81;5030411;28;25166;-69
2022/10/24 06:04:49;;;;;;;13.00;3.05;;;;;;;13.17;100.00;95577.09;5029087;28;24719;-69
2022/10/24 06:07:16;;;;;;;17.33;3.42;;;;;;;13.23;100.00;95568.00;5031113;28;24448;-69
2022/10/24 06:09:43;;;;;;;11.15;3.08;;;;;;;13.13;100.00;95569.66;5028232;28;24442;-69
2022/10/24 06:12:11;;;;;;;10.68;3.08;;;;;;;13.11;100.00;95577.56;5025882;28;24438;-69
2022/10/24 06:14:39;;;;;;;8.38;2.80;;;;;;;13.09;100.00;95579.47;5028544;28;24428;-69
2022/10/24 06:17:07;;;;;;;9.50;2.88;;;;;;;13.20;100.00;95578.63;5019743;28;24436;-69
2022/10/24 06:19:35;;;;;;;8.20;2.60;;;;;;;13.10;100.00;95580.28;5024268;28;24535;-69
2022/10/24 06:22:02;;;;;;;11.85;3.20;;;;;;;13.09;100.00;95582.06;5025770;28;24428;-69
2022/10/24 06:24:28;;;;;;;9.25;2.92;;;;;;;13.02;100.00;95588.66;5029064;28;24981;-69
2022/10/24 06:26:55;;;;;;;8.30;2.63;;;;;;;13.01;100.00;95610.38;5026274;28;24459;-69
2022/10/24 06:29:21;;;;;;;14.57;2.40;;;;;;;13.08;100.00;95611.59;5021537;28;24529;-69
2022/10/24 06:31:49;;;;;;;8.68;2.60;;;;;;;13.07;100.00;95615.13;5026029;28;24992;-70
2022/10/24 06:34:15;;;;;;;16.97;3.23;;;;;;;13.03;100.00;95631.91;5020868;28;24429;-70
2022/10/24 06:36:42;;;;;;;9.48;3.13;;;;;;;12.96;100.00;95660.13;5026086;28;24424;-69
2022/10/24 06:39:08;;;;;;;17.10;3.45;;;;;;;12.88;100.00;95670.28;5028848;28;24444;-68
2022/10/24 06:41:35;;;;;;;20.70;3.45;;;;;;;12.96;100.00;95638.50;5026024;28;24428;-68
2022/10/24 06:44:02;;;;;;;10.63;3.50;;;;;;;13.08;100.00;95603.78;5030820;28;24427;-68
2022/10/24 06:46:28;;;;;;;7.97;2.80;;;;;;;13.31;100.00;95608.13;5025968;28;25039;-68
2022/10/24 06:48:56;;;;;;;6.95;3.05;;;;;;;13.22;100.00;95623.56;5029225;28;24976;-68
2022/10/24 06:51:24;;;;;;;7.50;2.43;;;;;;;13.08;100.00;95624.59;5026563;28;24458;-68
2022/10/24 06:53:51;;;;;;;10.23;3.03;;;;;;;13.15;100.00;95619.75;5029027;28;24439;-68
2022/10/24 06:56:17;;;;;;;9.35;3.03;;;;;;;13.40;100.00;95614.38;5026396;28;24424;-68
2022/10/24 06:58:44;;;;;;;7.35;2.85;;;;;;;13.27;100.00;95624.06;5029358;28;24435;-68
2022/10/24 07:01:12;;;;;;;13.50;2.92;;;;;;;13.21;100.00;95624.50;5029751;28;25059;-68
2022/10/24 07:03:39;;;;;;;9.27;3.25;;;;;;;13.10;100.00;95625.31;5011884;28;24432;-68
2022/10/24 07:06:08;;;;;;;5.38;2.75;;;;;;;13.07;100.00;95615.97;5028312;28;25016;-68
2022/10/24 07:08:35;;;;;;;12.73;2.80;;;;;;;13.10;100.00;95624.50;5028479;28;24432;-68
2022/10/24 07:11:01;;;;;;;9.95;3.00;;;;;;;13.08;100.00;95638.41;5020939;28;24911;-69
2022/10/24 07:13:29;;;;;;;10.32;3.63;;;;;;;13.07;100.00;95639.34;5029014;28;24440;-68
2022/10/24 07:15:55;;;;;;;9.32;2.97;;;;;;;13.05;100.00;95646.47;5027123;28;24986;-68
2022/10/24 07:18:22;;;;;;;8.63;3.10;;;;;;;13.05;100.00;95633.47;5030327;28;24440;-68
2022/10/24 07:20:48;;;;;;;10.98;2.83;;;;;;;13.13;100.00;95625.09;5027038;28;24432;-68
2022/10/24 07:23:17;;;;;;;10.25;3.10;;;;;;;13.17;100.00;95618.72;5029984;28;24999;-68
2022/10/24 07:25:43;;;;;;;7.40;2.95;;;;;;;13.27;100.00;95618.84;5018492;28;24468;-68
2022/10/24 07:28:11;;;;;;;8.13;2.97;;;;;;;13.44;100.00;95621.00;5029836;28;24463;-68
2022/10/24 07:30:39;;;;;;;18.50;3.83;;;;;;;13.52;100.00;95631.66;5025679;28;24435;-68
2022/10/24 07:33:06;;;;;;;8.40;3.10;;;;;;;13.36;100.00;95635.56;5029922;28;24801;-68
2022/10/24 07:35:32;;;;;;;8.05;3.15;;;;;;;13.28;100.00;95628.34;5018581;28;24431;-69
2022/10/24 07:37:59;;;;;;;8.13;3.03;;;;;;;13.27;100.00;95634.47;5029464;28;24984;-68
2022/10/24 07:40:26;;;;;;;13.80;3.57;;;;;;;13.11;100.00;95637.34;5029363;28;24428;-68
2022/10/24 07:42:53;;;;;;;10.38;4.35;;;;;;;13.01;100.00;95634.59;5026590;28;24439;-68
2022/10/24 07:45:20;;;;;;;12.20;4.50;;;;;;;13.00;100.00;95639.94;5029014;28;24446;-68
2022/10/24 07:47:47;;;;;;;13.55;3.88;;;;;;;13.04;100.00;95639.59;5028148;28;24462;-68
2022/10/24 07:50:16;;;;;;;11.45;3.50;;;;;;;13.08;100.00;95632.38;5027383;28;24438;-68
2022/10/24 07:52:42;;;;;;;8.75;3.33;;;;;;;13.11;100.00;95632.16;5026126;28;24432;-68
2022/10/24 07:55:09;;;;;;;11.52;3.10;;;;;;;13.07;100.00;95628.13;5024948;28;24435;-68
2022/10/24 07:57:37;;;;;;;10.38;3.53;;;;;;;13.08;100.00;95632.38;5027487;28;24438;-68
2022/10/24 08:00:04;;;;;;;6.37;2.77;;;;;;;13.10;100.00;95633.13;5029861;28;24798;-68
2022/10/24 08:02:32;;;;;;;9.17;3.10;;;;;;;13.06;100.00;95636.88;5016479;28;24557;-68
2022/10/24 08:04:58;;;;;;;8.00;2.78;;;;;;;13.08;100.00;95640.19;5029169;28;25058;-68
2022/10/24 08:07:26;;;;;;;12.43;3.33;;;;;;;13.18;100.00;95627.34;5025151;28;24479;-68
2022/10/24 08:09:52;;;;;;;8.87;3.10;;;;;;;13.31;100.00;95638.47;5029097;28;24436;-68
2022/10/24 08:12:19;;;;;;;6.43;2.60;;;;;;;13.29;100.00;95640.38;5027144;28;24782;-68
2022/10/24 08:14:46;;;;;;;7.15;2.90;;;;;;;13.34;100.00;95640.03;5029084;28;24435;-68
2022/10/24 08:17:13;;;;;;;20.20;3.28;;;;;;;13.39;100.00;95630.13;5027930;28;24432;-68
2022/10/24 08:19:40;;;;;;;8.77;3.08;;;;;;;13.42;100.00;95635.06;5025505;28;24826;-68
2022/10/24 08:22:07;;;;;;;9.43;2.80;;;;;;;13.31;100.00;95639.34;5027299;28;24482;-68
2022/10/24 08:24:34;;;;;;;10.07;2.80;;;;;;;13.29;100.00;95638.59;5024517;28;24873;-68
2022/10/24 08:27:01;;;;;;;6.82;2.90;;;;;;;13.19;100.00;95632.41;5027462;28;24452;-68
2022/10/24 08:29:27;;;;;;;18.60;2.97;;;;;;;13.15;100.00;95622.34;5025085;28;24926;-68
2022/10/24 08:31:56;;;;;;;7.78;2.42;;;;;;;13.24;100.00;95624.31;5027439;28;24438;-68
2022/10/24 08:34:23;;;;;;;8.75;2.88;;;;;;;13.26;100.00;95638.00;5025171;28;24810;-68
2022/10/24 08:36:50;;;;;;;9.17;2.70;;;;;;;13.26;100.00;95640.63;5027528;28;24427;-68
2022/10/24 08:39:17;;;;;;;9.90;2.65;;;;;;;13.38;100.00;95628.44;5024759;28;24504;-68
2022/10/24 08:41:49;;;;;;;10.43;3.20;;;;;;;13.33;100.00;95618.41;5019647;28;24432;-68
2022/10/24 08:44:21;;;;;;;7.75;2.65;;;;;;;13.37;100.00;95612.00;5027891;28;24428;-68
2022/10/24 08:46:52;;;;;;;6.47;2.87;;;;;;;13.36;100.00;95618.16;5024207;28;24455;-68
2022/10/24 08:49:37;;;;;;;11.90;2.77;;;;;;;13.31;100.00;95625.47;5024352;28;24511;-68
2022/10/24 08:52:12;;;;;;;10.07;2.95;;;;;;;13.27;100.00;95619.72;5026300;28;24444;-68
2022/10/24 08:54:42;;;;;;;7.07;2.50;;;;;;;13.27;100.00;95624.06;5029389;28;24443;-68
2022/10/24 08:57:15;;;;;;;8.38;2.63;;;;;;;13.28;100.00;95631.75;5027383;28;25029;-68
2022/10/24 08:59:41;;;;;;;19.63;2.63;;;;;;;13.26;100.00;95635.41;5027344;28;24435;-68
2022/10/24 09:02:17;;;;;;;12.50;2.10;;;;;;;13.32;100.00;95637.56;5019159;28;24443;-68
2022/10/24 09:05:01;;;;;;;9.75;2.47;;;;;;;13.30;100.00;95650.66;5029835;28;24442;-68
2022/10/24 09:07:28;;;;;;;8.13;2.42;;;;;;;13.31;100.00;95651.50;5027559;28;24459;-68
2022/10/24 09:10:03;;;;;;;12.65;2.80;;;;;;;13.29;100.00;95653.38;5030473;28;24424;-68
2022/10/24 09:12:29;;;;;;;11.50;2.50;;;;;;;13.25;100.00;95658.00;5026834;28;24434;-68
2022/10/24 09:14:59;;;;;;;9.55;2.95;;;;;;;13.24;100.00;95668.53;5029798;28;24431;-68
2022/10/24 09:17:31;;;;;;;7.35;2.40;;;;;;;13.23;100.00;95667.66;5027584;28;24432;-68
2022/10/24 09:20:00;;;;;;;5.57;2.40;;;;;;;13.26;100.00;95667.44;5030580;28;24501;-68
2022/10/24 09:22:29;;;;;;;11.70;2.58;;;;;;;13.24;100.00;95660.72;5026951;28;24493;-68
2022/10/24 09:24:59;;;;;;;7.30;2.40;;;;;;;13.28;100.00;95667.34;5030154;28;24432;-68
2022/10/24 09:27:29;;;;;;;15.13;2.67;;;;;;;13.28;100.00;95670.78;5027386;28;25220;-68
2022/10/24 09:29:57;;;;;;;10.73;2.58;;;;;;;13.26;100.00;95664.03;5030692;28;24443;-68
2022/10/24 09:32:26;;;;;;;11.38;2.40;;;;;;;13.28;100.00;95669.94;5027215;28;24435;-69
2022/10/24 09:34:54;;;;;;;7.97;2.50;;;;;;;13.26;100.00;95679.63;5030201;28;24485;-68
2022/10/24 09:37:38;;;;;;;6.97;2.60;;;;;;;13.27;100.00;95676.06;5027807;28;25068;-68
2022/10/24 09:40:16;;;;;;;8.32;2.55;;;;;;;13.28;100.00;95668.16;5030939;28;24435;-68
2022/10/24 09:42:49;;;;;;;8.70;2.80;;;;;;;13.29;100.00;95669.00;5027303;28;24436;-68
2022/10/24 09:45:29;;;;;;;7.90;2.42;;;;;;;13.31;100.00;95667.94;5030275;28;24424;-68
2022/10/24 09:47:57;;;;;;;6.88;2.53;;;;;;;13.32;100.00;95668.78;5021267;28;24467;-68
2022/10/24 09:50:24;;;;;;;10.32;2.28;;;;;;;13.32;100.00;95672.19;5023862;28;24429;-68
2022/10/24 09:52:56;;;;;;;11.63;2.50;;;;;;;13.30;100.00;95678.44;5027533;28;24427;-68
2022/10/24 09:55:27;;;;;;;6.57;2.30;;;;;;;13.31;100.00;95674.91;5030034;28;24432;-68
2022/10/24 09:57:56;;;;;;;6.10;2.20;;;;;;;13.31;100.00;95674.91;5027823;28;24523;-68
2022/10/24 10:00:25;;;;;;;10.53;2.53;;;;;;;13.34;100.00;95679.03;5030304;28;24467;-68
2022/10/24 10:03:01;;;;;;;10.73;2.22;;;;;;;13.38;100.00;95672.66;5027461;28;24995;-68
2022/10/24 10:05:41;;;;;;;6.13;2.35;;;;;;;13.40;100.00;95671.63;5030397;28;25043;-68
2022/10/24 10:08:16;;;;;;;9.25;2.50;;;;;;;13.40;100.00;95673.41;5028132;28;24826;-68
2022/10/24 10:10:43;;;;;;;6.43;2.28;;;;;;;13.40;100.00;95668.19;5028642;28;24977;-68
2022/10/24 10:13:23;;;;;;;8.75;2.35;;;;;;;13.45;100.00;95673.88;5027468;28;24432;-68
2022/10/24 10:15:52;;;;;;;5.88;2.00;;;;;;;13.51;100.00;95676.00;5024144;28;24990;-68
2022/10/24 10:18:25;;;;;;;8.20;2.42;;;;;;;13.55;100.00;95680.84;5027951;28;24436;-68
2022/10/24 10:21:06;;;;;;;8.55;2.88;;;;;;;13.56;100.00;95679.09;5031197;28;24443;-68
2022/10/24 10:23:36;;;;;;;5.15;2.03;;;;;;;13.56;100.00;95681.69;5026916;28;24436;-68
2022/10/24 10:26:26;;;;;;;7.80;2.23;;;;;;;13.59;100.00;95691.03;5031222;28;24567;-68
2022/10/24 10:28:58;;;;;;;8.88;2.40;;;;;;;13.56;100.00;95689.50;5028655;28;24462;-68
2022/10/24 10:31:33;;;;;;;8.20;2.13;;;;;;;13.55;100.00;95690.44;5030635;28;24435;-68
2022/10/24 10:34:17;;;;;;;11.20;2.58;;;;;;;13.57;100.00;95685.94;5028917;28;24432;-68
2022/10/24 10:37:08;;;;;;;7.35;2.30;;;;;;;13.58;100.00;95689.38;5025931;28;24975;-68
2022/10/24 10:39:53;;;;;;;12.27;2.50;;;;;;;13.58;100.00;95697.19;5029073;28;24435;-68
2022/10/24 10:42:31;;;;;;;6.37;2.27;;;;;;;13.59;100.00;95710.06;5027437;28;24439;-68
2022/10/24 10:45:09;;;;;;;5.05;1.98;;;;;;;13.60;100.00;95709.13;5019275;28;24745;-68
2022/10/24 10:47:51;;;;;;;7.25;2.00;;;;;;;13.61;100.00;95708.19;5027176;28;25092;-68
2022/10/24 10:50:28;;;;;;;9.48;2.60;;;;;;;13.64;100.00;95709.72;5025954;28;24519;-68
2022/10/24 10:52:58;;;;;;;6.72;2.08;;;;;;;13.68;100.00;95703.34;5017311;28;24431;-68
2022/10/24 10:55:34;;;;;;;5.97;2.20;;;;;;;13.71;100.00;95710.91;5025879;28;24428;-68
2022/10/24 10:58:14;;;;;;;4.85;1.83;;;;;;;13.73;100.00;95707.25;5029138;28;24451;-68
2022/10/24 11:00:47;;;;;;;6.77;2.10;;;;;;;13.84;100.00;95708.22;5025331;28;24439;-68
2022/10/24 11:03:25;;;;;;;9.20;2.30;;;;;;;13.83;100.00;95710.00;5028749;28;24424;-68
2022/10/24 11:06:04;;;;;;;5.13;1.52;;;;;;;13.87;100.00;95718.38;5017883;28;24459;-68
2022/10/24 11:08:50;;;;;;;8.75;2.20;;;;;;;13.90;100.00;95718.16;5028873;28;24464;-68
2022/10/24 11:11:22;;;;;;;5.75;2.05;;;;;;;13.94;100.00;95717.81;5026360;28;24995;-68
2022/10/24 11:13:57;;;;;;;7.10;2.10;;;;;;;13.98;100.00;95713.19;5029877;28;24424;-68
2022/10/24 11:16:27;;;;;;;8.90;2.03;;;;;;;14.03;100.00;95711.88;5026101;28;24424;-68
2022/10/24 11:18:59;;;;;;;4.93;2.00;;;;;;;14.07;100.00;95712.47;5023501;28;24522;-69
2022/10/24 11:21:29;;;;;;;6.35;1.85;;;;;;;14.07;100.00;95706.44;5017874;28;24789;-69
2022/10/24 11:24:02;;;;;;;5.15;1.88;;;;;;;14.08;100.00;95711.53;5023746;28;24439;-69
2022/10/24 11:26:32;;;;;;;9.07;2.30;;;;;;;14.08;100.00;95710.69;5025130;28;24436;-69
2022/10/24 11:29:04;;;;;;;9.60;1.87;;;;;;;14.09;100.00;95700.19;5023567;28;25016;-69
2022/10/24 11:31:37;;;;;;;6.05;2.03;;;;;;;14.13;100.00;95700.75;5024839;28;24432;-69